sensor_id;sensor_type;location;lat;lon;timestamp;pressure;altitude;pressure_sealevel;temperature;humidity
55517;BME280;41724;51.176;-0.708;2023-03-25T00:01:08;99587.44;;;6.59;81.71
55517;BME280;41724;51.176;-0.708;2023-03-25T00:03:41;99590.27;;;8.09;80.13
55517;BME280;41724;51.176;-0.708;2023-03-25T00:06:09;99591.67;;;7.43;81.15
55517;BME280;41724;51.176;-0.708;2023-03-25T00:08:37;99596.02;;;7.88;79.29
55517;BME280;41724;51.176;-0.708;2023-03-25T00:11:05;99598.71;;;6.96;82.32
55517;BME280;41724;51.176;-0.708;2023-03-25T00:13:32;99605.89;;;6.95;82.90
55517;BME280;41724;51.176;-0.708;2023-03-25T00:16:01;99608.35;;;6.82;83.96
55517;BME280;41724;51.176;-0.708;2023-03-25T00:18:29;99610.42;;;6.19;86.75
55517;BME280;41724;51.176;-0.708;2023-03-25T00:20:57;99618.48;;;6.38;86.21
55517;BME280;41724;51.176;-0.708;2023-03-25T00:23:24;99612.40;;;7.09;84.15
55517;BME280;41724;51.176;-0.708;2023-03-25T00:25:51;99617.53;;;7.71;80.79
55517;BME280;41724;51.176;-0.708;2023-03-25T00:28:18;99615.76;;;6.91;82.80
55517;BME280;41724;51.176;-0.708;2023-03-25T00:30:45;99618.64;;;6.99;82.77
55517;BME280;41724;51.176;-0.708;2023-03-25T00:33:12;99624.70;;;6.73;83.77
55517;BME280;41724;51.176;-0.708;2023-03-25T00:35:40;99629.14;;;6.94;82.08
55517;BME280;41724;51.176;-0.708;2023-03-25T00:38:06;99625.84;;;6.79;82.71
55517;BME280;41724;51.176;-0.708;2023-03-25T00:40:33;99620.93;;;6.65;80.90
55517;BME280;41724;51.176;-0.708;2023-03-25T00:43:02;99621.48;;;7.17;78.87
55517;BME280;41724;51.176;-0.708;2023-03-25T00:45:30;99625.76;;;6.94;80.48
55517;BME280;41724;51.176;-0.708;2023-03-25T00:47:58;99622.15;;;7.07;80.57
55517;BME280;41724;51.176;-0.708;2023-03-25T00:50:26;99619.23;;;7.46;77.76
55517;BME280;41724;51.176;-0.708;2023-03-25T00:52:52;99628.09;;;6.16;84.16
55517;BME280;41724;51.176;-0.708;2023-03-25T00:55:19;99626.64;;;6.81;81.96
55517;BME280;41724;51.176;-0.708;2023-03-25T00:57:46;99617.77;;;6.43;82.34
55517;BME280;41724;51.176;-0.708;2023-03-25T01:00:16;99621.40;;;6.29;82.91
55517;BME280;41724;51.176;-0.708;2023-03-25T01:02:43;99617.29;;;6.49;80.85
55517;BME280;41724;51.176;-0.708;2023-03-25T01:05:11;99623.46;;;6.69;80.26
55517;BME280;41724;51.176;-0.708;2023-03-25T01:07:39;99630.53;;;6.90;79.95
55517;BME280;41724;51.176;-0.708;2023-03-25T01:10:07;99617.92;;;7.14;79.42
55517;BME280;41724;51.176;-0.708;2023-03-25T01:12:34;99617.12;;;6.69;80.82
55517;BME280;41724;51.176;-0.708;2023-03-25T01:15:02;99623.94;;;6.84;79.65
55517;BME280;41724;51.176;-0.708;2023-03-25T01:17:29;99628.24;;;7.04;78.72
55517;BME280;41724;51.176;-0.708;2023-03-25T01:19:56;99627.47;;;6.26;79.67
55517;BME280;41724;51.176;-0.708;2023-03-25T01:22:23;99629.29;;;6.03;83.38
55517;BME280;41724;51.176;-0.708;2023-03-25T01:24:50;99632.86;;;5.89;83.18
55517;BME280;41724;51.176;-0.708;2023-03-25T01:27:17;99645.12;;;6.03;81.44
55517;BME280;41724;51.176;-0.708;2023-03-25T01:29:44;99629.31;;;6.42;80.42
55517;BME280;41724;51.176;-0.708;2023-03-25T01:32:11;99634.22;;;6.77;78.53
55517;BME280;41724;51.176;-0.708;2023-03-25T01:34:38;99630.33;;;6.63;78.70
55517;BME280;41724;51.176;-0.708;2023-03-25T01:37:05;99631.42;;;6.73;79.18
55517;BME280;41724;51.176;-0.708;2023-03-25T01:39:32;99631.59;;;6.48;78.26
55517;BME280;41724;51.176;-0.708;2023-03-25T01:42:00;99630.84;;;6.56;79.51
55517;BME280;41724;51.176;-0.708;2023-03-25T01:45:31;99626.51;;;6.24;79.55
55517;BME280;41724;51.176;-0.708;2023-03-25T01:48:02;99632.49;;;6.37;77.93
55517;BME280;41724;51.176;-0.708;2023-03-25T01:50:30;99631.77;;;6.91;76.46
55517;BME280;41724;51.176;-0.708;2023-03-25T01:53:00;99624.62;;;6.37;78.49
55517;BME280;41724;51.176;-0.708;2023-03-25T01:55:28;99623.70;;;6.12;79.67
55517;BME280;41724;51.176;-0.708;2023-03-25T01:57:57;99627.63;;;6.15;79.17
55517;BME280;41724;51.176;-0.708;2023-03-25T02:00:25;99624.98;;;5.55;81.16
55517;BME280;41724;51.176;-0.708;2023-03-25T02:02:56;99618.78;;;5.95;81.98
55517;BME280;41724;51.176;-0.708;2023-03-25T02:05:31;99617.10;;;5.63;81.02
55517;BME280;41724;51.176;-0.708;2023-03-25T02:08:01;99619.68;;;5.81;81.46
55517;BME280;41724;51.176;-0.708;2023-03-25T02:10:29;99641.43;;;5.01;83.24
55517;BME280;41724;51.176;-0.708;2023-03-25T02:12:57;99618.06;;;5.71;82.61
55517;BME280;41724;51.176;-0.708;2023-03-25T02:15:25;99620.73;;;6.01;78.98
55517;BME280;41724;51.176;-0.708;2023-03-25T02:18:03;99622.57;;;6.22;79.47
55517;BME280;41724;51.176;-0.708;2023-03-25T02:20:48;99623.79;;;6.10;79.44
55517;BME280;41724;51.176;-0.708;2023-03-25T02:23:33;99624.08;;;5.47;81.08
55517;BME280;41724;51.176;-0.708;2023-03-25T02:26:32;99637.23;;;6.01;80.60
55517;BME280;41724;51.176;-0.708;2023-03-25T02:29:10;99624.44;;;5.55;81.50
55517;BME280;41724;51.176;-0.708;2023-03-25T02:31:53;99636.35;;;5.50;80.58
55517;BME280;41724;51.176;-0.708;2023-03-25T02:34:43;99645.63;;;5.67;81.39
55517;BME280;41724;51.176;-0.708;2023-03-25T02:38:28;99660.58;;;5.80;81.07
55517;BME280;41724;51.176;-0.708;2023-03-25T02:41:03;99629.38;;;5.37;81.82
55517;BME280;41724;51.176;-0.708;2023-03-25T02:43:38;99637.96;;;6.00;79.69
55517;BME280;41724;51.176;-0.708;2023-03-25T02:46:12;99639.25;;;5.30;80.01
55517;BME280;41724;51.176;-0.708;2023-03-25T02:48:48;99637.78;;;6.14;78.43
55517;BME280;41724;51.176;-0.708;2023-03-25T02:51:23;99636.57;;;5.58;80.66
55517;BME280;41724;51.176;-0.708;2023-03-25T02:53:52;99648.06;;;5.36;79.67
55517;BME280;41724;51.176;-0.708;2023-03-25T02:56:22;99641.48;;;5.20;81.95
55517;BME280;41724;51.176;-0.708;2023-03-25T02:58:54;99642.40;;;5.15;83.37
55517;BME280;41724;51.176;-0.708;2023-03-25T03:01:22;99639.37;;;5.27;82.22
55517;BME280;41724;51.176;-0.708;2023-03-25T03:03:51;99651.20;;;5.65;81.70
55517;BME280;41724;51.176;-0.708;2023-03-25T03:06:19;99654.03;;;5.26;83.48
55517;BME280;41724;51.176;-0.708;2023-03-25T03:08:57;99655.62;;;5.64;82.36
55517;BME280;41724;51.176;-0.708;2023-03-25T03:11:30;99654.29;;;5.73;81.54
55517;BME280;41724;51.176;-0.708;2023-03-25T03:14:09;99660.90;;;5.45;83.48
55517;BME280;41724;51.176;-0.708;2023-03-25T03:16:45;99654.78;;;5.74;81.80
55517;BME280;41724;51.176;-0.708;2023-03-25T03:19:23;99661.61;;;5.46;82.06
55517;BME280;41724;51.176;-0.708;2023-03-25T03:21:59;99660.21;;;5.66;83.34
55517;BME280;41724;51.176;-0.708;2023-03-25T03:24:30;99666.85;;;5.32;84.78
55517;BME280;41724;51.176;-0.708;2023-03-25T03:26:59;99666.67;;;5.28;84.44
55517;BME280;41724;51.176;-0.708;2023-03-25T03:29:38;99677.88;;;4.97;86.21
55517;BME280;41724;51.176;-0.708;2023-03-25T03:32:11;99662.66;;;5.29;84.07
55517;BME280;41724;51.176;-0.708;2023-03-25T03:34:45;99664.93;;;4.91;85.91
55517;BME280;41724;51.176;-0.708;2023-03-25T03:37:18;99679.44;;;4.95;88.11
55517;BME280;41724;51.176;-0.708;2023-03-25T03:39:48;99670.68;;;5.32;88.82
55517;BME280;41724;51.176;-0.708;2023-03-25T03:42:22;99670.12;;;5.30;89.11
55517;BME280;41724;51.176;-0.708;2023-03-25T03:44:55;99679.60;;;5.83;86.26
55517;BME280;41724;51.176;-0.708;2023-03-25T03:47:30;99683.16;;;6.25;83.02
55517;BME280;41724;51.176;-0.708;2023-03-25T03:50:03;99679.69;;;6.40;82.36
55517;BME280;41724;51.176;-0.708;2023-03-25T03:52:38;99689.62;;;5.92;83.55
55517;BME280;41724;51.176;-0.708;2023-03-25T03:55:11;99698.80;;;5.32;85.80
55517;BME280;41724;51.176;-0.708;2023-03-25T03:57:44;99695.74;;;5.34;85.33
55517;BME280;41724;51.176;-0.708;2023-03-25T04:00:17;99695.70;;;5.03;89.45
55517;BME280;41724;51.176;-0.708;2023-03-25T04:02:49;99699.16;;;5.13;88.78
55517;BME280;41724;51.176;-0.708;2023-03-25T04:05:19;99710.09;;;4.75;88.51
55517;BME280;41724;51.176;-0.708;2023-03-25T04:07:52;99709.23;;;4.96;89.77
55517;BME280;41724;51.176;-0.708;2023-03-25T04:10:27;99712.49;;;5.33;87.60
55517;BME280;41724;51.176;-0.708;2023-03-25T04:12:57;99714.27;;;6.05;83.05
55517;BME280;41724;51.176;-0.708;2023-03-25T04:15:25;99708.50;;;5.87;83.42
55517;BME280;41724;51.176;-0.708;2023-03-25T04:17:53;99717.06;;;5.97;84.80
55517;BME280;41724;51.176;-0.708;2023-03-25T04:20:22;99728.97;;;5.75;84.35
55517;BME280;41724;51.176;-0.708;2023-03-25T04:22:51;99719.48;;;5.75;84.96
55517;BME280;41724;51.176;-0.708;2023-03-25T04:25:18;99717.76;;;6.53;83.12
55517;BME280;41724;51.176;-0.708;2023-03-25T04:27:46;99715.72;;;6.57;80.79
55517;BME280;41724;51.176;-0.708;2023-03-25T04:30:13;99714.04;;;6.61;80.33
55517;BME280;41724;51.176;-0.708;2023-03-25T04:32:41;99715.14;;;6.68;80.66
55517;BME280;41724;51.176;-0.708;2023-03-25T04:35:09;99721.75;;;5.66;83.98
55517;BME280;41724;51.176;-0.708;2023-03-25T04:37:36;99723.61;;;6.06;84.36
55517;BME280;41724;51.176;-0.708;2023-03-25T04:40:04;99720.17;;;5.46;86.39
55517;BME280;41724;51.176;-0.708;2023-03-25T04:42:31;99733.92;;;6.56;82.98
55517;BME280;41724;51.176;-0.708;2023-03-25T04:44:58;99714.55;;;5.94;84.69
55517;BME280;41724;51.176;-0.708;2023-03-25T04:47:26;99718.00;;;5.97;83.99
55517;BME280;41724;51.176;-0.708;2023-03-25T04:49:53;99723.69;;;6.36;82.99
55517;BME280;41724;51.176;-0.708;2023-03-25T04:52:21;99735.25;;;6.82;81.79
55517;BME280;41724;51.176;-0.708;2023-03-25T04:54:48;99719.35;;;7.04;79.86
55517;BME280;41724;51.176;-0.708;2023-03-25T04:57:15;99722.41;;;6.73;80.30
55517;BME280;41724;51.176;-0.708;2023-03-25T04:59:42;99734.75;;;6.60;80.63
55517;BME280;41724;51.176;-0.708;2023-03-25T05:02:10;99732.83;;;6.31;82.51
55517;BME280;41724;51.176;-0.708;2023-03-25T05:04:38;99737.55;;;6.95;78.95
55517;BME280;41724;51.176;-0.708;2023-03-25T05:07:06;99745.48;;;6.72;79.66
55517;BME280;41724;51.176;-0.708;2023-03-25T05:09:33;99744.45;;;6.83;80.24
55517;BME280;41724;51.176;-0.708;2023-03-25T05:12:00;99758.04;;;6.34;80.71
55517;BME280;41724;51.176;-0.708;2023-03-25T05:14:28;99743.02;;;7.08;79.31
55517;BME280;41724;51.176;-0.708;2023-03-25T05:16:55;99760.76;;;6.68;79.78
55517;BME280;41724;51.176;-0.708;2023-03-25T05:19:22;99758.60;;;6.84;80.08
55517;BME280;41724;51.176;-0.708;2023-03-25T05:21:49;99757.86;;;6.53;81.13
55517;BME280;41724;51.176;-0.708;2023-03-25T05:24:16;99761.80;;;6.28;80.85
55517;BME280;41724;51.176;-0.708;2023-03-25T05:26:43;99753.51;;;7.07;78.83
55517;BME280;41724;51.176;-0.708;2023-03-25T05:29:12;99760.94;;;7.15;76.54
55517;BME280;41724;51.176;-0.708;2023-03-25T05:31:39;99766.32;;;6.81;78.82
55517;BME280;41724;51.176;-0.708;2023-03-25T05:34:06;99764.18;;;6.57;79.05
55517;BME280;41724;51.176;-0.708;2023-03-25T05:36:34;99776.02;;;6.67;79.29
55517;BME280;41724;51.176;-0.708;2023-03-25T05:39:02;99768.67;;;6.69;79.25
55517;BME280;41724;51.176;-0.708;2023-03-25T05:41:29;99781.64;;;6.94;78.78
55517;BME280;41724;51.176;-0.708;2023-03-25T05:43:56;99785.18;;;6.92;78.03
55517;BME280;41724;51.176;-0.708;2023-03-25T05:46:23;99781.22;;;6.45;79.96
55517;BME280;41724;51.176;-0.708;2023-03-25T05:48:50;99784.10;;;6.82;79.23
55517;BME280;41724;51.176;-0.708;2023-03-25T05:51:19;99790.44;;;6.84;79.10
55517;BME280;41724;51.176;-0.708;2023-03-25T05:53:48;99794.99;;;6.83;77.95
55517;BME280;41724;51.176;-0.708;2023-03-25T05:56:16;99795.01;;;7.00;78.35
55517;BME280;41724;51.176;-0.708;2023-03-25T05:58:43;99794.43;;;6.93;79.13
55517;BME280;41724;51.176;-0.708;2023-03-25T06:01:11;99794.39;;;6.89;77.91
55517;BME280;41724;51.176;-0.708;2023-03-25T06:03:38;99798.57;;;7.16;78.34
55517;BME280;41724;51.176;-0.708;2023-03-25T06:06:07;99801.51;;;7.28;76.82
55517;BME280;41724;51.176;-0.708;2023-03-25T06:08:34;99804.52;;;7.06;77.59
55517;BME280;41724;51.176;-0.708;2023-03-25T06:11:01;99805.38;;;6.59;77.92
55517;BME280;41724;51.176;-0.708;2023-03-25T06:13:28;99803.24;;;7.57;75.00
55517;BME280;41724;51.176;-0.708;2023-03-25T06:15:55;99803.70;;;6.66;76.45
55517;BME280;41724;51.176;-0.708;2023-03-25T06:18:22;99794.26;;;7.78;73.59
55517;BME280;41724;51.176;-0.708;2023-03-25T06:20:50;99810.42;;;7.41;75.56
55517;BME280;41724;51.176;-0.708;2023-03-25T06:23:17;99797.33;;;7.42;73.74
55517;BME280;41724;51.176;-0.708;2023-03-25T06:25:44;99802.91;;;7.74;73.29
55517;BME280;41724;51.176;-0.708;2023-03-25T06:28:11;99807.69;;;7.63;73.19
55517;BME280;41724;51.176;-0.708;2023-03-25T06:30:38;99808.22;;;7.43;72.88
55517;BME280;41724;51.176;-0.708;2023-03-25T06:33:05;99808.50;;;7.26;74.39
55517;BME280;41724;51.176;-0.708;2023-03-25T06:35:33;99811.58;;;7.12;75.08
55517;BME280;41724;51.176;-0.708;2023-03-25T06:38:00;99803.70;;;7.49;73.96
55517;BME280;41724;51.176;-0.708;2023-03-25T06:40:27;99811.23;;;7.58;73.57
55517;BME280;41724;51.176;-0.708;2023-03-25T06:42:54;99819.84;;;7.11;73.89
55517;BME280;41724;51.176;-0.708;2023-03-25T06:45:21;99833.93;;;7.35;74.89
55517;BME280;41724;51.176;-0.708;2023-03-25T06:47:49;99815.83;;;7.35;74.18
55517;BME280;41724;51.176;-0.708;2023-03-25T06:50:16;99816.50;;;7.86;73.69
55517;BME280;41724;51.176;-0.708;2023-03-25T06:52:44;99820.16;;;7.81;71.97
55517;BME280;41724;51.176;-0.708;2023-03-25T06:55:11;99820.74;;;7.30;75.26
55517;BME280;41724;51.176;-0.708;2023-03-25T06:57:38;99831.47;;;6.70;75.69
55517;BME280;41724;51.176;-0.708;2023-03-25T07:00:07;99825.27;;;6.90;74.73
55517;BME280;41724;51.176;-0.708;2023-03-25T07:02:34;99832.22;;;7.62;73.26
55517;BME280;41724;51.176;-0.708;2023-03-25T07:05:01;99843.22;;;7.71;72.43
55517;BME280;41724;51.176;-0.708;2023-03-25T07:07:28;99836.68;;;6.93;76.99
55517;BME280;41724;51.176;-0.708;2023-03-25T07:09:55;99841.21;;;6.91;76.35
55517;BME280;41724;51.176;-0.708;2023-03-25T07:12:23;99849.81;;;7.00;76.63
55517;BME280;41724;51.176;-0.708;2023-03-25T07:14:51;99851.49;;;7.58;73.89
55517;BME280;41724;51.176;-0.708;2023-03-25T07:17:18;99850.48;;;7.65;72.09
55517;BME280;41724;51.176;-0.708;2023-03-25T07:19:45;99851.53;;;7.64;71.61
55517;BME280;41724;51.176;-0.708;2023-03-25T07:22:12;99868.64;;;8.09;70.65
55517;BME280;41724;51.176;-0.708;2023-03-25T07:24:39;99859.38;;;7.85;70.53
55517;BME280;41724;51.176;-0.708;2023-03-25T07:27:06;99865.79;;;8.46;69.91
55517;BME280;41724;51.176;-0.708;2023-03-25T07:29:36;99869.34;;;8.31;69.65
55517;BME280;41724;51.176;-0.708;2023-03-25T07:32:04;99877.40;;;7.64;71.31
55517;BME280;41724;51.176;-0.708;2023-03-25T07:34:31;99885.93;;;7.88;71.85
55517;BME280;41724;51.176;-0.708;2023-03-25T07:36:58;99893.90;;;7.80;72.37
55517;BME280;41724;51.176;-0.708;2023-03-25T07:39:25;99888.37;;;7.35;73.42
55517;BME280;41724;51.176;-0.708;2023-03-25T07:41:52;99887.21;;;7.97;72.53
55517;BME280;41724;51.176;-0.708;2023-03-25T07:44:20;99881.32;;;8.37;72.02
55517;BME280;41724;51.176;-0.708;2023-03-25T07:46:48;99894.94;;;7.90;71.65
55517;BME280;41724;51.176;-0.708;2023-03-25T07:49:16;99905.72;;;8.75;70.91
55517;BME280;41724;51.176;-0.708;2023-03-25T07:51:43;99902.25;;;8.27;72.16
55517;BME280;41724;51.176;-0.708;2023-03-25T07:54:11;99906.70;;;8.40;71.10
55517;BME280;41724;51.176;-0.708;2023-03-25T07:56:37;99911.63;;;7.96;73.14
55517;BME280;41724;51.176;-0.708;2023-03-25T07:59:05;99922.62;;;8.03;74.93
55517;BME280;41724;51.176;-0.708;2023-03-25T08:01:32;99923.27;;;8.26;72.34
55517;BME280;41724;51.176;-0.708;2023-03-25T08:03:59;99916.56;;;8.16;71.91
55517;BME280;41724;51.176;-0.708;2023-03-25T08:06:26;99914.21;;;8.97;71.07
55517;BME280;41724;51.176;-0.708;2023-03-25T08:08:53;99914.34;;;9.33;68.29
55517;BME280;41724;51.176;-0.708;2023-03-25T08:11:20;99916.50;;;8.32;69.90
55517;BME280;41724;51.176;-0.708;2023-03-25T08:13:48;99923.49;;;8.94;69.38
55517;BME280;41724;51.176;-0.708;2023-03-25T08:16:14;99928.05;;;8.78;68.66
55517;BME280;41724;51.176;-0.708;2023-03-25T08:18:42;99932.01;;;9.26;69.56
55517;BME280;41724;51.176;-0.708;2023-03-25T08:21:08;99939.50;;;8.45;70.15
55517;BME280;41724;51.176;-0.708;2023-03-25T08:23:36;99935.02;;;8.51;70.54
55517;BME280;41724;51.176;-0.708;2023-03-25T08:26:04;99943.42;;;8.45;70.31
55517;BME280;41724;51.176;-0.708;2023-03-25T08:28:32;99943.80;;;8.88;69.13
55517;BME280;41724;51.176;-0.708;2023-03-25T08:30:59;99943.48;;;8.19;72.10
55517;BME280;41724;51.176;-0.708;2023-03-25T08:33:27;99960.74;;;7.82;72.21
55517;BME280;41724;51.176;-0.708;2023-03-25T08:35:56;99958.88;;;9.15;69.36
55517;BME280;41724;51.176;-0.708;2023-03-25T08:38:23;99970.53;;;8.41;71.48
55517;BME280;41724;51.176;-0.708;2023-03-25T08:40:54;99969.76;;;8.76;70.48
55517;BME280;41724;51.176;-0.708;2023-03-25T08:43:20;99975.56;;;8.87;71.67
55517;BME280;41724;51.176;-0.708;2023-03-25T08:45:48;99973.42;;;8.77;71.44
55517;BME280;41724;51.176;-0.708;2023-03-25T08:48:15;99980.94;;;8.85;72.70
55517;BME280;41724;51.176;-0.708;2023-03-25T08:50:43;99996.60;;;8.41;77.97
55517;BME280;41724;51.176;-0.708;2023-03-25T08:53:10;99991.73;;;8.08;81.03
55517;BME280;41724;51.176;-0.708;2023-03-25T08:55:37;99989.71;;;8.33;80.34
55517;BME280;41724;51.176;-0.708;2023-03-25T08:58:05;100005.17;;;8.59;78.18
55517;BME280;41724;51.176;-0.708;2023-03-25T09:00:33;99999.32;;;8.87;78.02
55517;BME280;41724;51.176;-0.708;2023-03-25T09:03:01;100002.09;;;8.56;82.03
55517;BME280;41724;51.176;-0.708;2023-03-25T09:05:28;100021.69;;;7.49;82.67
55517;BME280;41724;51.176;-0.708;2023-03-25T09:07:56;99998.57;;;8.33;81.96
55517;BME280;41724;51.176;-0.708;2023-03-25T09:10:23;100001.91;;;8.84;78.66
55517;BME280;41724;51.176;-0.708;2023-03-25T09:12:51;99999.04;;;8.77;77.48
55517;BME280;41724;51.176;-0.708;2023-03-25T09:15:18;99992.64;;;8.14;81.68
55517;BME280;41724;51.176;-0.708;2023-03-25T09:17:46;100002.70;;;8.07;79.85
55517;BME280;41724;51.176;-0.708;2023-03-25T09:20:12;99998.21;;;8.96;78.76
55517;BME280;41724;51.176;-0.708;2023-03-25T09:22:40;100017.01;;;8.34;78.52
55517;BME280;41724;51.176;-0.708;2023-03-25T09:25:08;100015.01;;;8.30;77.52
55517;BME280;41724;51.176;-0.708;2023-03-25T09:27:36;100019.02;;;8.40;76.83
55517;BME280;41724;51.176;-0.708;2023-03-25T09:30:05;100018.42;;;8.59;77.87
55517;BME280;41724;51.176;-0.708;2023-03-25T09:32:33;100019.27;;;8.16;78.09
55517;BME280;41724;51.176;-0.708;2023-03-25T09:35:00;100033.21;;;8.17;79.83
55517;BME280;41724;51.176;-0.708;2023-03-25T09:37:27;100033.42;;;8.01;79.30
55517;BME280;41724;51.176;-0.708;2023-03-25T09:39:54;100028.69;;;8.10;79.79
55517;BME280;41724;51.176;-0.708;2023-03-25T09:42:32;100032.65;;;8.49;77.43
55517;BME280;41724;51.176;-0.708;2023-03-25T09:45:13;100039.07;;;8.56;72.79
55517;BME280;41724;51.176;-0.708;2023-03-25T09:47:54;100035.12;;;8.68;72.15
55517;BME280;41724;51.176;-0.708;2023-03-25T09:50:22;100044.97;;;8.97;71.85
55517;BME280;41724;51.176;-0.708;2023-03-25T09:52:54;100057.01;;;8.85;73.76
55517;BME280;41724;51.176;-0.708;2023-03-25T09:55:25;100063.96;;;8.54;76.69
55517;BME280;41724;51.176;-0.708;2023-03-25T09:57:59;100066.83;;;8.69;80.18
55517;BME280;41724;51.176;-0.708;2023-03-25T10:00:28;100071.09;;;8.30;81.73
55517;BME280;41724;51.176;-0.708;2023-03-25T10:03:07;100068.69;;;8.36;81.32
55517;BME280;41724;51.176;-0.708;2023-03-25T10:06:18;100068.64;;;8.37;81.02
55517;BME280;41724;51.176;-0.708;2023-03-25T10:08:57;100063.47;;;8.89;78.19
55517;BME280;41724;51.176;-0.708;2023-03-25T10:11:34;100062.84;;;8.65;77.61
55517;BME280;41724;51.176;-0.708;2023-03-25T10:14:07;100062.15;;;8.85;77.45
55517;BME280;41724;51.176;-0.708;2023-03-25T10:16:45;100057.21;;;10.06;74.29
55517;BME280;41724;51.176;-0.708;2023-03-25T10:19:29;100083.17;;;9.81;72.00
55517;BME280;41724;51.176;-0.708;2023-03-25T10:22:04;100078.64;;;9.07;74.59
55517;BME280;41724;51.176;-0.708;2023-03-25T10:24:35;100072.64;;;9.63;72.06
55517;BME280;41724;51.176;-0.708;2023-03-25T10:27:13;100082.24;;;9.51;72.09
55517;BME280;41724;51.176;-0.708;2023-03-25T10:29:47;100095.28;;;9.92;68.81
55517;BME280;41724;51.176;-0.708;2023-03-25T10:32:19;100100.33;;;9.92;66.11
55517;BME280;41724;51.176;-0.708;2023-03-25T10:34:51;100114.77;;;10.08;66.05
55517;BME280;41724;51.176;-0.708;2023-03-25T10:37:24;100100.30;;;9.83;66.55
55517;BME280;41724;51.176;-0.708;2023-03-25T10:39:52;100110.91;;;10.87;63.54
55517;BME280;41724;51.176;-0.708;2023-03-25T10:42:25;100121.09;;;11.13;63.00
55517;BME280;41724;51.176;-0.708;2023-03-25T10:44:53;100118.44;;;10.92;61.57
55517;BME280;41724;51.176;-0.708;2023-03-25T10:47:24;100133.10;;;11.37;60.96
55517;BME280;41724;51.176;-0.708;2023-03-25T10:49:53;100125.54;;;11.29;60.80
55517;BME280;41724;51.176;-0.708;2023-03-25T10:52:22;100124.91;;;11.71;60.00
55517;BME280;41724;51.176;-0.708;2023-03-25T10:54:52;100127.24;;;11.99;58.86
55517;BME280;41724;51.176;-0.708;2023-03-25T10:57:22;100138.88;;;11.36;60.30
55517;BME280;41724;51.176;-0.708;2023-03-25T10:59:57;100127.87;;;11.38;59.96
55517;BME280;41724;51.176;-0.708;2023-03-25T11:02:28;100135.04;;;11.60;58.50
55517;BME280;41724;51.176;-0.708;2023-03-25T11:04:59;100133.54;;;11.32;56.83
55517;BME280;41724;51.176;-0.708;2023-03-25T11:07:30;100127.80;;;12.29;54.91
55517;BME280;41724;51.176;-0.708;2023-03-25T11:10:17;100136.07;;;11.85;58.06
55517;BME280;41724;51.176;-0.708;2023-03-25T11:12:45;100137.79;;;11.85;57.33
55517;BME280;41724;51.176;-0.708;2023-03-25T11:15:15;100143.97;;;11.75;57.45
55517;BME280;41724;51.176;-0.708;2023-03-25T11:17:43;100162.91;;;11.53;57.72
55517;BME280;41724;51.176;-0.708;2023-03-25T11:20:20;100170.74;;;11.05;59.38
55517;BME280;41724;51.176;-0.708;2023-03-25T11:22:50;100160.01;;;11.20;60.17
55517;BME280;41724;51.176;-0.708;2023-03-25T11:25:23;100167.08;;;10.68;59.94
55517;BME280;41724;51.176;-0.708;2023-03-25T11:27:54;100157.30;;;11.39;60.37
55517;BME280;41724;51.176;-0.708;2023-03-25T11:30:23;100163.09;;;11.84;59.74
55517;BME280;41724;51.176;-0.708;2023-03-25T11:33:01;100153.67;;;13.13;56.90
55517;BME280;41724;51.176;-0.708;2023-03-25T11:35:31;100168.19;;;11.99;57.13
55517;BME280;41724;51.176;-0.708;2023-03-25T11:38:15;100180.44;;;12.38;55.72
55517;BME280;41724;51.176;-0.708;2023-03-25T11:40:51;100164.42;;;11.76;56.54
55517;BME280;41724;51.176;-0.708;2023-03-25T11:43:20;100158.45;;;11.57;57.41
55517;BME280;41724;51.176;-0.708;2023-03-25T11:45:48;100167.52;;;12.02;54.36
55517;BME280;41724;51.176;-0.708;2023-03-25T11:48:18;100160.58;;;12.32;53.58
55517;BME280;41724;51.176;-0.708;2023-03-25T11:50:47;100151.02;;;13.41;52.85
55517;BME280;41724;51.176;-0.708;2023-03-25T11:53:16;100165.65;;;12.99;53.07
55517;BME280;41724;51.176;-0.708;2023-03-25T11:55:45;100168.65;;;13.25;51.63
55517;BME280;41724;51.176;-0.708;2023-03-25T11:58:16;100161.57;;;13.49;49.99
55517;BME280;41724;51.176;-0.708;2023-03-25T12:00:47;100199.99;;;12.51;51.58
55517;BME280;41724;51.176;-0.708;2023-03-25T12:03:20;100200.77;;;12.58;52.51
55517;BME280;41724;51.176;-0.708;2023-03-25T12:05:58;100187.96;;;11.96;52.88
55517;BME280;41724;51.176;-0.708;2023-03-25T12:08:28;100195.40;;;11.82;54.56
55517;BME280;41724;51.176;-0.708;2023-03-25T12:10:59;100181.48;;;11.86;54.04
55517;BME280;41724;51.176;-0.708;2023-03-25T12:13:48;100158.17;;;12.79;51.18
55517;BME280;41724;51.176;-0.708;2023-03-25T12:16:27;100167.16;;;13.59;50.37
55517;BME280;41724;51.176;-0.708;2023-03-25T12:19:06;100170.26;;;12.91;49.89
55517;BME280;41724;51.176;-0.708;2023-03-25T12:21:45;100169.62;;;13.53;50.21
55517;BME280;41724;51.176;-0.708;2023-03-25T12:24:28;100197.71;;;11.85;49.81
55517;BME280;41724;51.176;-0.708;2023-03-25T12:27:13;100186.10;;;12.60;51.48
55517;BME280;41724;51.176;-0.708;2023-03-25T12:29:49;100163.76;;;12.13;51.65
55517;BME280;41724;51.176;-0.708;2023-03-25T12:32:27;100163.88;;;12.37;51.11
55517;BME280;41724;51.176;-0.708;2023-03-25T12:35:07;100162.18;;;12.49;51.10
55517;BME280;41724;51.176;-0.708;2023-03-25T12:37:58;100169.68;;;12.53;50.22
55517;BME280;41724;51.176;-0.708;2023-03-25T12:40:41;100185.15;;;12.29;49.90
55517;BME280;41724;51.176;-0.708;2023-03-25T12:43:17;100171.32;;;12.56;49.95
55517;BME280;41724;51.176;-0.708;2023-03-25T12:45:59;100175.67;;;13.56;47.36
55517;BME280;41724;51.176;-0.708;2023-03-25T12:48:40;100164.42;;;13.11;47.97
55517;BME280;41724;51.176;-0.708;2023-03-25T12:51:21;100170.34;;;12.52;47.03
55517;BME280;41724;51.176;-0.708;2023-03-25T12:53:58;100164.89;;;13.35;46.17
55517;BME280;41724;51.176;-0.708;2023-03-25T12:56:45;100166.51;;;13.88;44.71
55517;BME280;41724;51.176;-0.708;2023-03-25T12:59:30;100169.73;;;14.73;43.83
55517;BME280;41724;51.176;-0.708;2023-03-25T13:02:18;100190.69;;;14.35;41.56
55517;BME280;41724;51.176;-0.708;2023-03-25T13:04:59;100185.86;;;14.34;42.56
55517;BME280;41724;51.176;-0.708;2023-03-25T13:07:33;100176.91;;;14.31;43.85
55517;BME280;41724;51.176;-0.708;2023-03-25T13:10:10;100189.80;;;15.37;43.00
55517;BME280;41724;51.176;-0.708;2023-03-25T13:12:46;100181.84;;;16.11;40.74
55517;BME280;41724;51.176;-0.708;2023-03-25T13:15:17;100180.41;;;16.62;41.88